createdAt,value
2022-08-26T00:00:56.243Z,86.72
2022-08-26T00:01:58.133Z,86.36
2022-08-26T00:02:57.993Z,87.07
2022-08-26T00:03:58.826Z,86.93
2022-08-26T00:04:59.748Z,86.88
2022-08-26T00:06:01.474Z,86.84
2022-08-26T00:07:01.497Z,87.48
2022-08-26T00:08:01.826Z,87.47
2022-08-26T00:09:02.888Z,87.92
2022-08-26T00:10:02.143Z,87.48
2022-08-26T00:11:02.125Z,87.47
2022-08-26T00:12:03.882Z,87.50
2022-08-26T00:13:03.898Z,86.97
2022-08-26T00:14:03.462Z,86.87
2022-08-26T00:14:13.100Z,87.04
2022-08-26T00:15:14.020Z,87.14
2022-08-26T00:16:15.354Z,87.40
2022-08-26T00:17:15.047Z,87.68
2022-08-26T00:18:21.692Z,87.71
2022-08-26T00:19:16.680Z,87.87
2022-08-26T00:20:17.542Z,87.57
2022-08-26T00:21:18.863Z,87.45
2022-08-26T00:22:20.216Z,87.69
2022-08-26T00:23:19.262Z,88.14
2022-08-26T00:24:20.107Z,88.88
2022-08-26T00:25:21.986Z,89.13
2022-08-26T00:26:22.938Z,88.93
2022-08-26T00:27:22.680Z,89.28
2022-08-26T00:28:23.717Z,89.33
2022-08-26T00:29:23.347Z,89.50
2022-08-26T00:30:25.036Z,89.64
2022-08-26T00:31:24.241Z,89.79
2022-08-26T00:32:24.786Z,89.34
2022-08-26T00:33:24.829Z,89.80
2022-08-26T00:34:26.662Z,89.66
2022-08-26T00:35:27.954Z,90.09
2022-08-26T00:36:29.823Z,90.02
2022-08-26T00:37:27.816Z,91.65
2022-08-26T00:38:28.144Z,92.14
2022-08-26T00:38:37.842Z,92.97
2022-08-26T00:39:37.341Z,92.92
2022-08-26T00:40:37.350Z,92.51
2022-08-26T00:41:38.519Z,92.75
2022-08-26T00:42:38.380Z,92.28
2022-08-26T00:43:46.311Z,92.79
2022-08-26T00:44:38.718Z,93.63
2022-08-26T00:46:11.473Z,93.59
2022-08-26T00:47:12.412Z,93.48
2022-08-26T00:48:14.221Z,93.45
2022-08-26T00:49:14.975Z,93.36
2022-08-26T00:50:14.806Z,93.83
2022-08-26T00:51:15.763Z,93.79
2022-08-26T00:52:16.796Z,93.67
2022-08-26T00:53:18.760Z,93.34
2022-08-26T00:54:18.469Z,93.21
2022-08-26T00:55:20.252Z,93.42
2022-08-26T00:56:18.179Z,93.10
2022-08-26T00:57:19.737Z,92.44
2022-08-26T00:58:19.594Z,92.39
2022-08-26T00:59:20.522Z,92.80
2022-08-26T01:00:20.670Z,93.78
2022-08-26T01:01:23.108Z,94.03
2022-08-26T01:02:21.904Z,94.27
2022-08-26T01:03:21.724Z,94.66
2022-08-26T01:04:21.892Z,94.13
2022-08-26T01:05:23.499Z,94.57
2022-08-26T01:06:23.389Z,94.28
2022-08-26T01:07:24.268Z,94.07
2022-08-26T01:08:26.046Z,94.28
2022-08-26T01:09:25.941Z,93.61
2022-08-26T01:10:26.888Z,93.57
2022-08-26T01:11:28.324Z,93.23
2022-08-26T01:11:36.927Z,93.62
2022-08-26T01:12:40.184Z,93.59
2022-08-26T01:13:37.669Z,93.99
2022-08-26T01:14:39.510Z,94.33
2022-08-26T01:15:39.420Z,94.29
2022-08-26T01:16:40.135Z,94.72
2022-08-26T01:17:40.908Z,94.36
2022-08-26T01:18:41.906Z,94.43
2022-08-26T01:19:41.211Z,93.89
2022-08-26T01:20:41.331Z,94.89
2022-08-26T01:21:43.147Z,94.39
2022-08-26T01:22:43.651Z,94.46
2022-08-26T01:23:45.095Z,93.71
2022-08-26T01:24:44.373Z,94.48
2022-08-26T01:25:46.068Z,93.70
2022-08-26T01:26:46.228Z,93.56
2022-08-26T01:27:46.869Z,94.43
2022-08-26T01:28:46.607Z,94.32
2022-08-26T01:29:47.327Z,94.64
2022-08-26T01:30:48.244Z,94.73
2022-08-26T01:31:50.340Z,94.77
2022-08-26T01:32:50.010Z,94.53
2022-08-26T01:33:51.038Z,94.43
2022-08-26T01:34:51.019Z,94.57
2022-08-26T01:35:51.070Z,94.15
2022-08-26T01:36:00.480Z,93.98
2022-08-26T01:37:01.276Z,93.98
2022-08-26T01:38:02.100Z,94.85
2022-08-26T01:39:07.333Z,95.18
2022-08-26T01:40:02.804Z,95.96
2022-08-26T01:41:02.740Z,95.98
2022-08-26T01:42:03.498Z,96.62
2022-08-26T01:43:03.638Z,96.64
2022-08-26T01:44:03.575Z,96.01
2022-08-26T01:45:05.401Z,96.19
2022-08-26T01:46:05.345Z,96.08
2022-08-26T01:47:06.429Z,96.41
2022-08-26T01:48:06.205Z,96.31
2022-08-26T01:49:06.858Z,96.51
2022-08-26T01:50:07.029Z,97.22
2022-08-26T01:51:10.171Z,96.80
2022-08-26T01:52:08.539Z,97.65
2022-08-26T01:53:11.375Z,97.33
2022-08-26T01:54:11.836Z,97.46
2022-08-26T01:55:10.343Z,97.71
2022-08-26T01:56:10.424Z,97.51
2022-08-26T01:57:12.340Z,97.39
2022-08-26T01:57:21.002Z,98.64
2022-08-26T01:58:21.835Z,98.77
2022-08-26T01:59:22.282Z,98.44
2022-08-26T02:00:22.924Z,98.75
2022-08-26T02:01:23.067Z,99.24
2022-08-26T02:02:24.523Z,99.27
2022-08-26T02:03:24.396Z,99.05
2022-08-26T02:04:25.167Z,98.49
2022-08-26T02:05:26.067Z,98.74
2022-08-26T02:06:26.828Z,98.10
2022-08-26T02:07:27.776Z,98.11
2022-08-26T02:08:27.864Z,97.71
2022-08-26T02:09:28.613Z,98.03
2022-08-26T02:10:29.432Z,98.15
2022-08-26T02:11:29.470Z,97.99
2022-08-26T02:12:31.103Z,98.62
2022-08-26T02:13:30.613Z,99.07
2022-08-26T02:14:30.713Z,101.07
2022-08-26T02:15:31.584Z,103.40
2022-08-26T02:16:31.714Z,103.74
2022-08-26T02:17:31.786Z,101.72
2022-08-26T02:18:32.532Z,101.51
2022-08-26T02:19:34.158Z,102.60
2022-08-26T02:20:34.236Z,102.55
2022-08-26T02:21:33.998Z,103.98
2022-08-26T02:22:35.668Z,104.54
2022-08-26T02:23:36.437Z,104.44
2022-08-26T02:24:36.312Z,104.15
2022-08-26T02:25:37.573Z,104.84
2022-08-26T02:25:46.521Z,105.14
2022-08-26T02:26:47.448Z,105.13
2022-08-26T02:27:47.730Z,104.76
2022-08-26T02:28:49.608Z,106.82
2022-08-26T02:29:49.698Z,107.92
2022-08-26T02:30:48.735Z,105.87
2022-08-26T02:31:49.495Z,106.32
2022-08-26T02:32:50.220Z,106.72
2022-08-26T02:33:51.208Z,105.73
2022-08-26T02:34:50.960Z,106.42
2022-08-26T02:35:52.583Z,107.14
2022-08-26T02:36:53.315Z,107.67
2022-08-26T02:37:53.168Z,106.89
2022-08-26T02:38:53.593Z,107.49
2022-08-26T02:39:54.172Z,107.90
2022-08-26T02:40:54.956Z,107.50
2022-08-26T02:41:56.590Z,107.41
2022-08-26T02:42:57.165Z,106.98
2022-08-26T02:43:56.162Z,107.56
2022-08-26T02:44:57.697Z,108.40
2022-08-26T02:45:56.812Z,109.00
2022-08-26T02:46:58.554Z,109.00
2022-08-26T02:47:58.407Z,109.00
2022-08-26T02:48:59.264Z,109.00
2022-08-26T02:50:00.876Z,109.00
2022-08-26T02:50:10.503Z,109.00
2022-08-26T02:51:11.731Z,109.00
2022-08-26T02:52:11.372Z,109.00
2022-08-26T02:53:13.195Z,109.00
2022-08-26T02:54:14.053Z,109.00
2022-08-26T02:55:13.805Z,109.00
2022-08-26T02:56:15.485Z,109.00
2022-08-26T02:57:15.529Z,109.00
2022-08-26T02:58:16.516Z,109.00
2022-08-26T02:59:17.412Z,108.01
2022-08-26T03:00:18.172Z,108.28
2022-08-26T03:01:18.061Z,109.00
2022-08-26T03:02:18.142Z,109.00
2022-08-26T03:03:18.789Z,109.00
2022-08-26T03:04:20.339Z,109.00
2022-08-26T03:05:21.241Z,109.00
2022-08-26T03:06:20.815Z,109.00
2022-08-26T03:07:22.566Z,109.00
2022-08-26T03:08:22.809Z,109.00
2022-08-26T03:09:23.481Z,109.00
2022-08-26T03:10:23.267Z,109.00
2022-08-26T03:10:32.937Z,109.00
2022-08-26T03:11:33.621Z,109.00
2022-08-26T03:12:33.715Z,109.00
2022-08-26T03:13:34.532Z,109.00
2022-08-26T03:14:36.130Z,109.00
2022-08-26T03:15:36.431Z,109.00
2022-08-26T03:16:36.173Z,109.00
2022-08-26T03:17:36.800Z,109.00
2022-08-26T03:18:38.384Z,109.00
2022-08-26T03:19:38.080Z,109.00
2022-08-26T03:20:38.756Z,109.00
2022-08-26T03:21:40.461Z,109.00
2022-08-26T03:22:39.522Z,109.00
2022-08-26T03:23:40.728Z,109.00
2022-08-26T03:24:39.941Z,109.00
2022-08-26T03:25:40.872Z,109.00
2022-08-26T03:26:52.062Z,109.00
2022-08-26T03:27:43.122Z,109.00
2022-08-26T03:28:42.774Z,109.00
2022-08-26T03:29:43.486Z,109.00
2022-08-26T03:30:45.836Z,109.00
2022-08-26T03:31:44.928Z,109.00
2022-08-26T03:32:45.062Z,109.00
2022-08-26T03:33:46.082Z,109.00
2022-08-26T03:33:59.139Z,109.00
2022-08-26T03:34:56.196Z,109.00
2022-08-26T03:35:58.103Z,109.00
2022-08-26T03:36:59.001Z,109.00
2022-08-26T03:37:58.717Z,109.00
2022-08-26T03:39:00.625Z,109.00
2022-08-26T03:40:01.305Z,109.00
2022-08-26T03:41:00.820Z,109.00
2022-08-26T03:42:01.647Z,109.00
2022-08-26T03:43:02.377Z,109.00
2022-08-26T03:44:04.115Z,109.00
2022-08-26T03:46:12.890Z,109.00
2022-08-26T03:47:13.559Z,109.00
2022-08-26T03:48:15.188Z,109.00
2022-08-26T03:49:16.173Z,109.00
2022-08-26T03:50:15.338Z,109.00
2022-08-26T03:51:18.227Z,109.00
2022-08-26T03:52:16.377Z,109.00
2022-08-26T03:53:16.532Z,109.00
2022-08-26T03:54:17.253Z,109.00
2022-08-26T03:55:18.860Z,109.00
2022-08-26T03:56:19.595Z,109.00
2022-08-26T03:57:20.298Z,109.00
2022-08-26T03:58:21.153Z,109.00
2022-08-26T04:00:38.371Z,109.00
2022-08-26T04:01:39.267Z,109.00
2022-08-26T04:02:39.812Z,109.00
2022-08-26T04:03:40.359Z,109.00
2022-08-26T04:04:40.995Z,109.00
2022-08-26T04:05:41.516Z,109.00
2022-08-26T04:06:42.292Z,109.00
2022-08-26T04:07:43.221Z,109.00
2022-08-26T04:08:43.437Z,109.00
2022-08-26T04:09:43.708Z,109.00
2022-08-26T04:10:45.444Z,109.00
2022-08-26T04:11:44.961Z,109.00
2022-08-26T04:12:45.433Z,109.00
2022-08-26T04:13:47.101Z,109.00
2022-08-26T04:14:47.002Z,109.00
2022-08-26T04:15:48.731Z,109.00
2022-08-26T04:16:48.123Z,109.00
2022-08-26T04:17:49.332Z,109.00
2022-08-26T04:18:48.992Z,109.00
2022-08-26T04:19:50.385Z,109.00
2022-08-26T04:20:49.871Z,109.00
2022-08-26T04:21:51.445Z,109.00
2022-08-26T04:22:51.342Z,109.00
2022-08-26T04:23:52.056Z,109.00
2022-08-26T04:24:52.990Z,109.00
2022-08-26T04:25:01.616Z,109.00
2022-08-26T04:26:02.014Z,109.00
2022-08-26T04:27:03.125Z,109.00
2022-08-26T04:28:03.018Z,109.00
2022-08-26T04:29:04.673Z,109.00
2022-08-26T04:30:03.718Z,109.00
2022-08-26T04:31:04.420Z,109.00
2022-08-26T04:32:04.857Z,109.00
2022-08-26T04:33:12.939Z,109.00
2022-08-26T04:34:06.480Z,109.00
2022-08-26T04:35:07.779Z,109.00
2022-08-26T04:36:07.678Z,109.00
2022-08-26T04:37:07.689Z,109.00
2022-08-26T04:38:09.274Z,109.00
2022-08-26T04:39:09.373Z,109.00
2022-08-26T04:40:08.436Z,109.00
2022-08-26T04:41:15.292Z,109.00
2022-08-26T04:42:10.112Z,109.00
2022-08-26T04:43:11.832Z,109.00
2022-08-26T04:45:23.851Z,109.00
2022-08-26T04:46:24.266Z,109.00
2022-08-26T04:47:25.553Z,109.00
2022-08-26T04:48:24.493Z,109.00
2022-08-26T04:49:26.127Z,109.00
2022-08-26T04:50:25.214Z,109.00
2022-08-26T04:51:26.356Z,109.00
2022-08-26T04:52:26.122Z,109.00
2022-08-26T04:53:26.613Z,109.00
2022-08-26T04:54:28.643Z,109.00
2022-08-26T04:55:38.313Z,109.00
2022-08-26T04:56:28.652Z,109.00
2022-08-26T04:57:30.243Z,109.00
2022-08-26T04:58:30.122Z,109.00
2022-08-26T05:00:08.006Z,109.00
2022-08-26T05:01:03.895Z,109.00
2022-08-26T05:02:04.892Z,109.00
2022-08-26T05:03:05.330Z,109.00
2022-08-26T05:04:07.996Z,109.00
2022-08-26T05:05:06.027Z,109.00
2022-08-26T05:06:07.550Z,109.00
2022-08-26T05:07:06.827Z,109.00
2022-08-26T05:08:08.457Z,109.00
2022-08-26T05:09:08.390Z,109.00
2022-08-26T05:10:10.059Z,109.00
2022-08-26T05:11:10.015Z,109.00
2022-08-26T05:12:11.272Z,109.00
2022-08-26T05:13:12.647Z,109.00
2022-08-26T05:14:11.223Z,109.00
2022-08-26T05:15:11.845Z,109.00
2022-08-26T05:16:13.768Z,109.00
2022-08-26T05:17:15.041Z,109.00
2022-08-26T05:18:13.702Z,109.00
2022-08-26T05:19:14.880Z,109.00
2022-08-26T05:20:14.644Z,109.00
2022-08-26T05:21:14.940Z,109.00
2022-08-26T05:22:15.769Z,109.00
2022-08-26T05:23:16.452Z,109.00
2022-08-26T05:24:18.194Z,109.00
2022-08-26T05:24:26.809Z,109.00
2022-08-26T05:25:27.599Z,109.00
2022-08-26T05:26:28.391Z,109.00
2022-08-26T05:27:29.890Z,109.00
2022-08-26T05:28:29.540Z,109.00
2022-08-26T05:29:31.353Z,109.00
2022-08-26T05:30:31.975Z,109.00
2022-08-26T05:31:31.680Z,109.00
2022-08-26T05:32:32.290Z,109.00
2022-08-26T05:33:33.411Z,109.00
2022-08-26T05:34:34.078Z,109.00
2022-08-26T05:35:33.426Z,109.00
2022-08-26T05:36:35.124Z,109.00
2022-08-26T05:37:34.576Z,109.00
2022-08-26T05:38:35.206Z,109.00
2022-08-26T05:39:35.857Z,109.00
2022-08-26T05:40:37.608Z,109.00
2022-08-26T05:41:38.407Z,109.00
2022-08-26T05:42:37.559Z,109.00
2022-08-26T05:43:39.117Z,109.00
2022-08-26T05:44:55.351Z,109.00
2022-08-26T05:45:43.531Z,109.00
2022-08-26T05:46:40.354Z,109.00
2022-08-26T05:47:40.753Z,109.00
2022-08-26T05:47:51.382Z,109.00
2022-08-26T05:48:52.788Z,109.00
2022-08-26T05:49:53.756Z,109.00
2022-08-26T05:50:53.284Z,109.00
2022-08-26T05:51:53.895Z,109.00
2022-08-26T05:52:54.787Z,109.00
2022-08-26T05:53:55.726Z,109.00
2022-08-26T05:54:56.777Z,109.00
2022-08-26T05:55:58.188Z,109.00
2022-08-26T05:56:57.364Z,109.00
2022-08-26T05:57:58.940Z,109.00
2022-08-26T05:58:59.800Z,109.00
2022-08-26T05:59:58.507Z,109.00
2022-08-26T06:01:00.290Z,109.00
2022-08-26T06:01:59.512Z,109.00
2022-08-26T06:02:59.978Z,109.00
2022-08-26T06:04:01.711Z,109.00
2022-08-26T06:05:01.197Z,109.00
2022-08-26T06:06:01.782Z,109.00
2022-08-26T06:07:02.376Z,109.00
2022-08-26T06:08:03.219Z,109.00
2022-08-26T06:09:03.939Z,109.00
2022-08-26T06:10:31.118Z,109.00
2022-08-26T06:11:05.331Z,109.00
2022-08-26T06:11:18.422Z,109.00
2022-08-26T06:12:13.513Z,109.00
2022-08-26T06:13:13.873Z,109.00
2022-08-26T06:14:13.978Z,109.00
2022-08-26T06:15:14.982Z,109.00
2022-08-26T06:16:15.920Z,109.00
2022-08-26T06:17:15.407Z,109.00
2022-08-26T06:18:17.281Z,109.00
2022-08-26T06:19:16.948Z,109.00
2022-08-26T06:20:18.666Z,109.00
2022-08-26T06:21:19.127Z,109.00
2022-08-26T06:22:22.424Z,109.00
2022-08-26T06:23:19.345Z,109.00
2022-08-26T06:24:20.730Z,109.00
2022-08-26T06:25:20.539Z,109.00
2022-08-26T06:26:21.572Z,109.00
2022-08-26T06:27:21.379Z,109.00
2022-08-26T06:27:32.862Z,109.00
2022-08-26T06:28:29.205Z,109.00
2022-08-26T06:29:29.305Z,109.00
2022-08-26T06:30:33.209Z,109.00
2022-08-26T06:31:30.627Z,109.00
2022-08-26T06:32:30.563Z,109.00
2022-08-26T06:33:30.415Z,109.00
2022-08-26T06:34:31.308Z,109.00
2022-08-26T06:35:33.232Z,109.00
2022-08-26T06:36:34.094Z,109.00
2022-08-26T06:37:33.467Z,109.00
2022-08-26T06:38:34.147Z,109.00
2022-08-26T06:39:35.022Z,109.00
2022-08-26T06:40:35.058Z,109.00
2022-08-26T06:41:39.051Z,109.00
2022-08-26T06:42:36.714Z,109.00
2022-08-26T06:43:37.611Z,109.00
2022-08-26T06:44:38.273Z,109.00
2022-08-26T06:45:39.265Z,109.00
2022-08-26T06:46:40.158Z,109.00
2022-08-26T06:47:40.317Z,109.00
2022-08-26T06:48:42.620Z,109.00
2022-08-26T06:49:41.549Z,109.00
2022-08-26T06:49:54.318Z,109.00
2022-08-26T06:50:54.649Z,109.00
2022-08-26T06:51:55.861Z,109.00
2022-08-26T06:52:54.963Z,109.00
2022-08-26T06:53:55.153Z,109.00
2022-08-26T06:54:56.655Z,109.00
2022-08-26T06:55:57.617Z,109.00
2022-08-26T06:56:58.419Z,109.00
2022-08-26T06:57:59.117Z,109.00
2022-08-26T06:58:59.490Z,109.00
2022-08-26T06:59:58.686Z,109.00
2022-08-26T07:01:03.762Z,109.00
2022-08-26T07:01:59.909Z,109.00
2022-08-26T07:03:00.764Z,109.00
2022-08-26T07:04:01.202Z,109.00
2022-08-26T07:05:02.381Z,109.00
2022-08-26T07:06:02.202Z,109.00
2022-08-26T07:06:12.647Z,109.00
2022-08-26T07:07:10.284Z,109.00
2022-08-26T07:08:10.966Z,109.00
2022-08-26T07:09:11.886Z,109.00
2022-08-26T07:10:12.799Z,109.00
2022-08-26T07:11:13.637Z,109.00
2022-08-26T07:12:14.406Z,109.00
2022-08-26T07:13:16.049Z,109.00
2022-08-26T07:14:47.305Z,109.00
2022-08-26T07:15:44.014Z,109.00
2022-08-26T07:16:44.733Z,109.00
2022-08-26T07:17:44.926Z,109.00
2022-08-26T07:18:45.324Z,109.00
2022-08-26T07:19:45.701Z,109.00
2022-08-26T07:20:46.694Z,109.00
2022-08-26T07:21:47.847Z,109.00
2022-08-26T07:22:48.056Z,109.00
2022-08-26T07:23:56.379Z,109.00
2022-08-26T07:24:49.296Z,109.00
2022-08-26T07:25:50.061Z,109.00
2022-08-26T07:26:50.484Z,109.00
2022-08-26T07:27:54.179Z,109.00
2022-08-26T07:28:51.569Z,108.12
2022-08-26T07:29:51.458Z,107.23
2022-08-26T07:30:51.965Z,107.27
2022-08-26T07:31:52.233Z,106.14
2022-08-26T07:32:52.369Z,106.16
2022-08-26T07:33:53.442Z,105.62
2022-08-26T07:34:54.344Z,105.43
2022-08-26T07:35:03.457Z,104.73
2022-08-26T07:36:04.273Z,104.81
2022-08-26T07:37:04.035Z,105.11
2022-08-26T07:38:04.197Z,104.94
2022-08-26T07:39:04.560Z,104.26
2022-08-26T07:40:04.696Z,103.90
2022-08-26T07:41:04.938Z,104.04
2022-08-26T07:42:07.394Z,103.10
2022-08-26T07:43:05.340Z,103.09
2022-08-26T07:44:05.620Z,103.10
2022-08-26T07:45:06.928Z,103.70
2022-08-26T07:46:06.261Z,102.11
2022-08-26T07:47:39.433Z,100.64
2022-08-26T07:48:40.341Z,100.60
2022-08-26T07:49:40.901Z,100.59
2022-08-26T07:50:49.540Z,101.16
2022-08-26T07:51:41.833Z,101.51
2022-08-26T07:52:42.249Z,101.87
2022-08-26T07:53:43.649Z,101.03
2022-08-26T07:54:43.180Z,102.18
2022-08-26T07:55:43.371Z,101.51
2022-08-26T07:56:44.201Z,101.79
2022-08-26T07:57:43.989Z,101.97
2022-08-26T07:58:50.530Z,101.97
2022-08-26T07:59:44.883Z,100.84
2022-08-26T08:00:45.852Z,101.00
2022-08-26T08:01:46.228Z,100.95
2022-08-26T08:02:47.423Z,100.28
2022-08-26T08:03:47.236Z,99.46
2022-08-26T08:04:47.788Z,99.21
2022-08-26T08:05:47.793Z,100.25
2022-08-26T08:06:49.772Z,100.18
2022-08-26T08:07:53.482Z,99.16
2022-08-26T08:08:50.726Z,98.12
2022-08-26T08:09:50.580Z,98.91
2022-08-26T08:10:51.355Z,98.38
2022-08-26T08:11:52.284Z,97.94
2022-08-26T08:12:54.168Z,99.37
2022-08-26T08:13:03.316Z,98.61
2022-08-26T08:14:04.116Z,98.67
2022-08-26T08:15:04.245Z,98.66
2022-08-26T08:16:05.198Z,98.06
2022-08-26T08:17:06.172Z,98.44
2022-08-26T08:18:06.169Z,98.03
2022-08-26T08:19:07.051Z,97.39
2022-08-26T08:20:08.135Z,98.10
2022-08-26T08:21:22.058Z,97.10
2022-08-26T08:22:17.450Z,96.70
2022-08-26T08:23:08.569Z,98.17
2022-08-26T08:24:10.709Z,97.31
2022-08-26T08:25:10.888Z,97.71
2022-08-26T08:26:10.823Z,96.13
2022-08-26T08:27:12.243Z,95.89
2022-08-26T08:28:12.173Z,95.78
2022-08-26T08:29:14.168Z,96.79
2022-08-26T08:30:14.042Z,96.76
2022-08-26T08:31:14.103Z,95.61
2022-08-26T08:32:15.439Z,96.08
2022-08-26T08:33:14.886Z,95.73
2022-08-26T08:34:16.146Z,96.32
2022-08-26T08:35:15.818Z,95.40
2022-08-26T08:36:18.431Z,96.10
2022-08-26T08:37:17.034Z,96.09
2022-08-26T08:37:28.658Z,94.88
2022-08-26T08:38:30.496Z,94.82
2022-08-26T08:39:31.305Z,94.31
2022-08-26T08:40:31.541Z,95.83
2022-08-26T08:41:30.902Z,95.53
2022-08-26T08:42:31.748Z,95.41
2022-08-26T08:43:32.548Z,94.39
2022-08-26T08:44:34.865Z,94.67
2022-08-26T08:45:36.582Z,94.18
2022-08-26T08:46:34.782Z,94.10
2022-08-26T08:47:35.114Z,93.03
2022-08-26T08:48:35.692Z,93.33
2022-08-26T08:49:36.424Z,93.55
2022-08-26T08:50:37.172Z,92.73
2022-08-26T08:51:37.594Z,92.18
2022-08-26T08:52:39.580Z,92.79
2022-08-26T08:53:39.518Z,91.10
2022-08-26T08:54:38.932Z,92.01
2022-08-26T08:55:42.388Z,92.39
2022-08-26T08:56:41.786Z,91.60
2022-08-26T08:57:39.939Z,90.32
2022-08-26T08:58:42.012Z,90.50
2022-08-26T08:59:41.224Z,89.39
2022-08-26T09:00:41.947Z,88.23
2022-08-26T09:00:50.591Z,88.90
2022-08-26T09:01:52.262Z,88.96
2022-08-26T09:02:51.919Z,88.83
2022-08-26T09:03:53.290Z,88.33
2022-08-26T09:04:53.217Z,87.68
2022-08-26T09:05:55.216Z,87.77
2022-08-26T09:06:54.713Z,87.34
2022-08-26T09:07:54.799Z,87.54
2022-08-26T09:08:54.857Z,86.94
2022-08-26T09:09:56.206Z,87.08
2022-08-26T09:10:57.131Z,86.86
2022-08-26T09:11:56.119Z,86.18
2022-08-26T09:12:57.299Z,85.67
2022-08-26T09:13:58.014Z,84.69
2022-08-26T09:14:57.115Z,84.70
2022-08-26T09:15:58.064Z,84.46
2022-08-26T09:16:59.444Z,85.23
2022-08-26T09:17:58.844Z,83.77
2022-08-26T09:19:00.578Z,83.34
2022-08-26T09:19:59.965Z,83.07
2022-08-26T09:21:00.634Z,81.76
2022-08-26T09:22:05.792Z,82.20
2022-08-26T09:23:01.319Z,83.10
2022-08-26T09:23:11.943Z,83.02
2022-08-26T09:24:14.188Z,83.28
2022-08-26T09:25:13.313Z,83.47
2022-08-26T09:26:13.348Z,81.80
2022-08-26T09:27:16.914Z,81.83
2022-08-26T09:28:14.683Z,81.91
2022-08-26T09:29:15.203Z,79.94
2022-08-26T09:30:16.017Z,79.00
2022-08-26T09:31:18.065Z,79.20
2022-08-26T09:32:17.514Z,79.14
2022-08-26T09:33:18.227Z,78.69
2022-08-26T09:34:19.039Z,76.32
2022-08-26T09:35:19.404Z,75.98
2022-08-26T09:36:20.469Z,76.04
2022-08-26T09:37:21.205Z,74.54
2022-08-26T09:38:22.116Z,74.93
2022-08-26T09:39:22.694Z,74.96
2022-08-26T09:40:23.560Z,75.13
2022-08-26T09:41:22.846Z,75.33
2022-08-26T09:42:22.935Z,74.81
2022-08-26T09:43:24.263Z,75.38
2022-08-26T09:44:24.316Z,76.23
2022-08-26T09:44:35.946Z,74.83
2022-08-26T09:45:37.694Z,74.47
2022-08-26T09:46:37.533Z,73.46
2022-08-26T09:47:37.617Z,73.68
2022-08-26T09:48:40.482Z,72.83
2022-08-26T09:49:37.745Z,73.43
2022-08-26T09:50:38.065Z,74.44
2022-08-26T09:51:38.663Z,74.61
2022-08-26T09:52:40.408Z,73.67
2022-08-26T09:53:39.233Z,73.54
2022-08-26T09:54:40.889Z,73.04
2022-08-26T09:55:40.200Z,72.84
2022-08-26T09:56:42.158Z,72.42
2022-08-26T09:57:41.398Z,71.78
2022-08-26T09:58:41.948Z,70.80
2022-08-26T09:59:41.947Z,70.78
2022-08-26T10:00:42.457Z,70.90
2022-08-26T10:01:43.493Z,70.63
2022-08-26T10:02:47.877Z,69.80
2022-08-26T10:03:44.651Z,70.06
2022-08-26T10:04:45.032Z,70.17
2022-08-26T10:05:45.221Z,71.25
2022-08-26T10:06:46.623Z,70.01
2022-08-26T10:07:47.274Z,70.17
2022-08-26T10:08:47.399Z,70.23
2022-08-26T10:09:46.344Z,69.56
2022-08-26T10:09:54.987Z,70.26
2022-08-26T10:10:55.410Z,70.19
2022-08-26T10:11:57.112Z,69.62
2022-08-26T10:12:57.750Z,70.21
2022-08-26T10:13:58.153Z,70.01
2022-08-26T10:14:57.657Z,70.45
2022-08-26T10:15:59.115Z,71.35
2022-08-26T10:16:58.269Z,71.62
2022-08-26T10:18:00.117Z,72.48
2022-08-26T10:19:00.254Z,73.79
2022-08-26T10:19:59.947Z,74.95
2022-08-26T10:21:00.330Z,72.81
2022-08-26T10:22:00.584Z,72.04
2022-08-26T10:23:00.760Z,71.54
2022-08-26T10:24:01.444Z,71.61
2022-08-26T10:25:02.792Z,71.63
2022-08-26T10:26:02.311Z,71.99
2022-08-26T10:27:03.293Z,71.58
2022-08-26T10:28:03.710Z,71.47
2022-08-26T10:29:05.317Z,70.59
2022-08-26T10:30:04.324Z,70.09
2022-08-26T10:31:06.005Z,70.02
2022-08-26T10:32:06.861Z,70.57
2022-08-26T10:33:06.778Z,70.06
2022-08-26T10:33:18.087Z,71.05
2022-08-26T10:34:17.236Z,70.99
2022-08-26T10:35:17.583Z,70.14
2022-08-26T10:36:20.352Z,70.28
2022-08-26T10:37:19.072Z,70.58
2022-08-26T10:38:20.863Z,70.67
2022-08-26T10:39:20.358Z,70.99
2022-08-26T10:40:21.098Z,70.40
2022-08-26T10:41:21.436Z,70.97
2022-08-26T10:42:22.279Z,71.80
2022-08-26T10:43:23.110Z,72.31
2022-08-26T10:44:23.691Z,71.68
2022-08-26T10:45:24.989Z,72.11
2022-08-26T10:46:27.283Z,71.87
2022-08-26T10:47:25.009Z,71.00
2022-08-26T10:48:26.209Z,71.40
2022-08-26T10:49:27.178Z,72.39
2022-08-26T10:50:26.995Z,71.98
2022-08-26T10:51:28.176Z,71.45
2022-08-26T10:52:29.348Z,72.76
2022-08-26T10:53:28.076Z,71.45
2022-08-26T10:54:28.749Z,71.22
2022-08-26T10:55:30.813Z,70.22
2022-08-26T10:56:29.066Z,70.18
2022-08-26T10:57:30.000Z,69.63
2022-08-26T10:58:30.234Z,68.44
2022-08-26T10:59:31.029Z,69.96
2022-08-26T10:59:42.652Z,69.63
2022-08-26T11:00:40.903Z,69.47
2022-08-26T11:01:41.131Z,69.45
2022-08-26T11:02:41.103Z,70.69
2022-08-26T11:03:41.765Z,70.33
2022-08-26T11:04:47.100Z,71.04
2022-08-26T11:05:43.360Z,71.69
2022-08-26T11:06:44.002Z,70.73
2022-08-26T11:07:44.654Z,70.15
2022-08-26T11:08:44.739Z,70.63
2022-08-26T11:09:45.487Z,70.11
2022-08-26T11:10:45.548Z,70.56
2022-08-26T11:11:47.014Z,70.32
2022-08-26T11:12:49.358Z,71.23
2022-08-26T11:13:47.751Z,71.44
2022-08-26T11:14:58.519Z,70.04
2022-08-26T11:15:48.764Z,70.48
2022-08-26T11:16:49.374Z,71.10
2022-08-26T11:17:49.867Z,70.85
2022-08-26T11:18:51.319Z,69.96
2022-08-26T11:20:00.772Z,70.30
2022-08-26T11:20:03.313Z,70.63
2022-08-26T11:21:00.866Z,70.51
2022-08-26T11:22:01.523Z,70.15
2022-08-26T11:23:01.730Z,69.62
2022-08-26T11:24:02.558Z,69.09
2022-08-26T11:25:04.187Z,69.13
2022-08-26T11:26:04.021Z,70.02
2022-08-26T11:27:04.564Z,69.63
2022-08-26T11:28:04.676Z,69.86
2022-08-26T11:29:12.037Z,69.25
2022-08-26T11:30:05.773Z,69.10
2022-08-26T11:31:05.913Z,69.84
2022-08-26T11:32:06.868Z,68.86
2022-08-26T11:33:07.854Z,68.97
2022-08-26T11:34:08.866Z,69.12
2022-08-26T11:35:08.570Z,69.58
2022-08-26T11:36:12.269Z,68.52
2022-08-26T11:37:08.660Z,69.69
2022-08-26T11:38:09.216Z,70.42
2022-08-26T11:38:19.292Z,69.44
2022-08-26T11:39:18.446Z,69.37
2022-08-26T11:40:18.654Z,69.88
2022-08-26T11:41:19.503Z,69.23
2022-08-26T11:42:20.703Z,68.45
2022-08-26T11:43:20.558Z,69.66
2022-08-26T11:44:25.896Z,69.23
2022-08-26T11:46:30.100Z,70.32
2022-08-26T11:47:30.673Z,70.58
2022-08-26T11:48:31.657Z,68.81
2022-08-26T11:49:33.400Z,69.04
2022-08-26T11:50:32.596Z,68.91
2022-08-26T11:51:35.958Z,70.31
2022-08-26T11:52:36.149Z,69.51
2022-08-26T11:53:33.943Z,69.97
2022-08-26T11:54:35.867Z,69.56
2022-08-26T11:55:35.048Z,70.41
2022-08-26T11:56:36.453Z,69.12
2022-08-26T11:57:36.017Z,69.71
2022-08-26T11:58:37.009Z,68.92
2022-08-26T11:58:45.761Z,69.25
2022-08-26T11:59:47.754Z,69.09
2022-08-26T12:00:47.435Z,69.32
2022-08-26T12:01:47.958Z,68.92
2022-08-26T12:02:52.452Z,69.20
2022-08-26T12:03:48.950Z,69.95
2022-08-26T12:04:49.541Z,69.35
2022-08-26T12:05:49.781Z,69.76
2022-08-26T12:06:50.895Z,70.17
2022-08-26T12:07:50.208Z,69.66
2022-08-26T12:08:50.346Z,70.37
2022-08-26T12:09:50.472Z,70.11
2022-08-26T12:10:52.591Z,69.95
2022-08-26T12:11:51.394Z,70.17
2022-08-26T12:12:51.558Z,70.39
2022-08-26T12:13:52.916Z,70.12
2022-08-26T12:14:53.006Z,70.86
2022-08-26T12:15:52.787Z,70.88
2022-08-26T12:16:53.824Z,70.72
2022-08-26T12:18:01.789Z,69.65
2022-08-26T12:18:55.204Z,70.13
2022-08-26T12:22:35.005Z,69.36
2022-08-26T12:23:36.525Z,69.33
2022-08-26T12:24:36.101Z,70.18
2022-08-26T12:25:36.397Z,70.68
2022-08-26T12:26:37.652Z,70.28
2022-08-26T12:27:37.418Z,69.69
2022-08-26T12:28:38.123Z,70.26
2022-08-26T12:29:38.701Z,71.21
2022-08-26T12:30:39.698Z,70.09
2022-08-26T12:31:40.515Z,69.70
2022-08-26T12:32:57.140Z,69.63
2022-08-26T12:33:42.348Z,69.89
2022-08-26T12:34:43.274Z,69.88